sensor_id;sensor_type;location;lat;lon;timestamp;temperature;humidity
20839;DHT22;10580;51.092;6.828;2022-10-31T00:00:23;13.70;99.90
20839;DHT22;10580;51.092;6.828;2022-10-31T00:02:48;13.70;99.90
20839;DHT22;10580;51.092;6.828;2022-10-31T00:05:14;13.70;99.90
20839;DHT22;10580;51.092;6.828;2022-10-31T00:07:39;13.70;99.90
20839;DHT22;10580;51.092;6.828;2022-10-31T00:10:06;13.60;99.90
20839;DHT22;10580;51.092;6.828;2022-10-31T00:12:32;13.50;99.90
20839;DHT22;10580;51.092;6.828;2022-10-31T00:14:57;13.50;99.90
20839;DHT22;10580;51.092;6.828;2022-10-31T00:17:23;13.50;99.90
20839;DHT22;10580;51.092;6.828;2022-10-31T00:19:48;13.50;99.90
20839;DHT22;10580;51.092;6.828;2022-10-31T00:22:14;13.50;99.90
20839;DHT22;10580;51.092;6.828;2022-10-31T00:24:39;13.40;99.90
20839;DHT22;10580;51.092;6.828;2022-10-31T00:27:05;13.30;99.90
20839;DHT22;10580;51.092;6.828;2022-10-31T00:29:31;13.30;99.90
20839;DHT22;10580;51.092;6.828;2022-10-31T00:31:56;13.30;99.90
20839;DHT22;10580;51.092;6.828;2022-10-31T00:34:22;13.30;99.90
20839;DHT22;10580;51.092;6.828;2022-10-31T00:36:47;13.20;99.90
20839;DHT22;10580;51.092;6.828;2022-10-31T00:39:13;13.20;99.90
20839;DHT22;10580;51.092;6.828;2022-10-31T00:41:38;13.20;99.90
20839;DHT22;10580;51.092;6.828;2022-10-31T00:44:04;13.10;99.90
20839;DHT22;10580;51.092;6.828;2022-10-31T00:46:29;13.10;99.90
20839;DHT22;10580;51.092;6.828;2022-10-31T00:48:55;13.10;99.90
20839;DHT22;10580;51.092;6.828;2022-10-31T00:51:20;13.00;99.90
20839;DHT22;10580;51.092;6.828;2022-10-31T00:53:46;13.00;99.90
20839;DHT22;10580;51.092;6.828;2022-10-31T00:56:12;13.00;99.90
20839;DHT22;10580;51.092;6.828;2022-10-31T00:58:37;13.10;99.90
20839;DHT22;10580;51.092;6.828;2022-10-31T01:01:03;13.10;99.90
20839;DHT22;10580;51.092;6.828;2022-10-31T01:03:31;13.20;99.90
20839;DHT22;10580;51.092;6.828;2022-10-31T01:05:58;13.30;99.90
20839;DHT22;10580;51.092;6.828;2022-10-31T01:08:24;13.30;99.90
20839;DHT22;10580;51.092;6.828;2022-10-31T01:11:14;13.30;99.90
20839;DHT22;10580;51.092;6.828;2022-10-31T01:13:39;13.40;99.90
20839;DHT22;10580;51.092;6.828;2022-10-31T01:16:07;13.40;99.90
20839;DHT22;10580;51.092;6.828;2022-10-31T01:18:33;13.50;99.90
20839;DHT22;10580;51.092;6.828;2022-10-31T01:21:00;13.50;99.90
20839;DHT22;10580;51.092;6.828;2022-10-31T01:23:27;13.60;99.90
20839;DHT22;10580;51.092;6.828;2022-10-31T01:28:29;13.60;99.90
20839;DHT22;10580;51.092;6.828;2022-10-31T01:30:54;13.60;99.90
20839;DHT22;10580;51.092;6.828;2022-10-31T01:33:20;13.60;99.90
20839;DHT22;10580;51.092;6.828;2022-10-31T01:35:45;13.50;99.90
20839;DHT22;10580;51.092;6.828;2022-10-31T01:38:11;13.50;99.90
20839;DHT22;10580;51.092;6.828;2022-10-31T01:40:36;13.50;99.90
20839;DHT22;10580;51.092;6.828;2022-10-31T01:43:02;13.50;99.90
20839;DHT22;10580;51.092;6.828;2022-10-31T01:45:27;13.50;99.90
20839;DHT22;10580;51.092;6.828;2022-10-31T01:47:53;13.50;99.90
20839;DHT22;10580;51.092;6.828;2022-10-31T01:50:28;13.50;99.90
20839;DHT22;10580;51.092;6.828;2022-10-31T01:52:57;13.40;99.90
20839;DHT22;10580;51.092;6.828;2022-10-31T01:55:30;13.40;99.90
20839;DHT22;10580;51.092;6.828;2022-10-31T01:58:02;13.30;99.90
20839;DHT22;10580;51.092;6.828;2022-10-31T02:00:29;13.30;99.90
20839;DHT22;10580;51.092;6.828;2022-10-31T02:02:54;13.30;99.90
20839;DHT22;10580;51.092;6.828;2022-10-31T02:05:24;13.30;99.90
20839;DHT22;10580;51.092;6.828;2022-10-31T02:07:55;13.20;99.90
20839;DHT22;10580;51.092;6.828;2022-10-31T02:10:23;13.20;99.90
20839;DHT22;10580;51.092;6.828;2022-10-31T02:12:52;13.10;99.90
20839;DHT22;10580;51.092;6.828;2022-10-31T02:15:18;13.10;99.90
20839;DHT22;10580;51.092;6.828;2022-10-31T02:17:44;13.10;99.90
20839;DHT22;10580;51.092;6.828;2022-10-31T02:20:18;13.00;99.90
20839;DHT22;10580;51.092;6.828;2022-10-31T02:23:06;13.00;99.90
20839;DHT22;10580;51.092;6.828;2022-10-31T02:36:13;12.70;99.90
20839;DHT22;10580;51.092;6.828;2022-10-31T02:42:13;12.60;99.90
20839;DHT22;10580;51.092;6.828;2022-10-31T02:45:01;12.60;99.90
20839;DHT22;10580;51.092;6.828;2022-10-31T02:47:35;12.50;99.90
20839;DHT22;10580;51.092;6.828;2022-10-31T02:50:19;12.50;99.90
20839;DHT22;10580;51.092;6.828;2022-10-31T02:52:50;12.40;99.90
20839;DHT22;10580;51.092;6.828;2022-10-31T02:57:48;12.30;99.90
20839;DHT22;10580;51.092;6.828;2022-10-31T03:00:16;12.30;99.90
20839;DHT22;10580;51.092;6.828;2022-10-31T03:05:45;12.30;99.90
20839;DHT22;10580;51.092;6.828;2022-10-31T03:11:57;12.20;99.90
20839;DHT22;10580;51.092;6.828;2022-10-31T03:25:53;12.00;99.90
20839;DHT22;10580;51.092;6.828;2022-10-31T03:28:25;12.00;99.90
20839;DHT22;10580;51.092;6.828;2022-10-31T03:30:53;12.00;99.90
20839;DHT22;10580;51.092;6.828;2022-10-31T03:33:26;12.00;99.90
20839;DHT22;10580;51.092;6.828;2022-10-31T03:35:55;11.90;99.90
20839;DHT22;10580;51.092;6.828;2022-10-31T03:38:22;11.90;99.90
20839;DHT22;10580;51.092;6.828;2022-10-31T03:40:52;12.00;99.90
20839;DHT22;10580;51.092;6.828;2022-10-31T03:54:46;12.10;99.90
20839;DHT22;10580;51.092;6.828;2022-10-31T03:58:18;12.20;99.90
20839;DHT22;10580;51.092;6.828;2022-10-31T04:00:13;12.20;99.90
20839;DHT22;10580;51.092;6.828;2022-10-31T04:02:45;12.30;99.90
20839;DHT22;10580;51.092;6.828;2022-10-31T04:05:13;12.30;99.90
20839;DHT22;10580;51.092;6.828;2022-10-31T04:25:36;12.50;99.90
20839;DHT22;10580;51.092;6.828;2022-10-31T06:12:31;12.10;99.90
20839;DHT22;10580;51.092;6.828;2022-10-31T06:14:57;12.10;99.90
20839;DHT22;10580;51.092;6.828;2022-10-31T06:17:22;12.10;99.90
20839;DHT22;10580;51.092;6.828;2022-10-31T06:19:48;12.10;99.90
20839;DHT22;10580;51.092;6.828;2022-10-31T06:22:14;12.10;99.90
20839;DHT22;10580;51.092;6.828;2022-10-31T06:24:39;12.10;99.90
20839;DHT22;10580;51.092;6.828;2022-10-31T06:27:05;12.10;99.90
20839;DHT22;10580;51.092;6.828;2022-10-31T06:29:31;12.10;99.90
20839;DHT22;10580;51.092;6.828;2022-10-31T06:31:57;12.10;99.90
20839;DHT22;10580;51.092;6.828;2022-10-31T06:34:22;12.10;99.90
20839;DHT22;10580;51.092;6.828;2022-10-31T06:36:48;12.10;99.90
20839;DHT22;10580;51.092;6.828;2022-10-31T06:39:14;12.10;99.90
20839;DHT22;10580;51.092;6.828;2022-10-31T06:41:40;12.10;99.90
20839;DHT22;10580;51.092;6.828;2022-10-31T06:44:07;12.10;99.90
20839;DHT22;10580;51.092;6.828;2022-10-31T06:46:33;12.10;99.90
20839;DHT22;10580;51.092;6.828;2022-10-31T06:48:58;12.10;99.90
20839;DHT22;10580;51.092;6.828;2022-10-31T06:51:24;12.10;99.90
20839;DHT22;10580;51.092;6.828;2022-10-31T06:53:50;12.10;99.90
20839;DHT22;10580;51.092;6.828;2022-10-31T06:56:15;12.20;99.90
20839;DHT22;10580;51.092;6.828;2022-10-31T06:58:41;12.20;99.90
20839;DHT22;10580;51.092;6.828;2022-10-31T07:01:06;12.20;99.90
20839;DHT22;10580;51.092;6.828;2022-10-31T07:03:32;12.20;99.90
20839;DHT22;10580;51.092;6.828;2022-10-31T07:05:58;12.20;99.90
20839;DHT22;10580;51.092;6.828;2022-10-31T07:08:24;12.30;99.90
20839;DHT22;10580;51.092;6.828;2022-10-31T07:10:56;12.30;99.90
20839;DHT22;10580;51.092;6.828;2022-10-31T07:13:22;12.40;99.90
20839;DHT22;10580;51.092;6.828;2022-10-31T07:15:55;12.40;99.90
20839;DHT22;10580;51.092;6.828;2022-10-31T07:18:24;12.50;99.90
20839;DHT22;10580;51.092;6.828;2022-10-31T07:20:51;12.50;99.90
20839;DHT22;10580;51.092;6.828;2022-10-31T07:23:16;12.50;99.90
20839;DHT22;10580;51.092;6.828;2022-10-31T07:25:42;12.50;99.90
20839;DHT22;10580;51.092;6.828;2022-10-31T07:28:08;12.60;99.90
20839;DHT22;10580;51.092;6.828;2022-10-31T07:30:34;12.60;99.90
20839;DHT22;10580;51.092;6.828;2022-10-31T07:32:59;12.60;99.90
20839;DHT22;10580;51.092;6.828;2022-10-31T07:35:27;12.60;99.90
20839;DHT22;10580;51.092;6.828;2022-10-31T07:37:54;12.60;99.90
20839;DHT22;10580;51.092;6.828;2022-10-31T07:40:50;12.70;99.90
20839;DHT22;10580;51.092;6.828;2022-10-31T07:43:17;12.70;99.90
20839;DHT22;10580;51.092;6.828;2022-10-31T07:45:42;12.90;99.90
20839;DHT22;10580;51.092;6.828;2022-10-31T07:48:08;13.00;99.90
20839;DHT22;10580;51.092;6.828;2022-10-31T07:50:34;13.00;99.90
20839;DHT22;10580;51.092;6.828;2022-10-31T07:53:08;13.20;99.90
20839;DHT22;10580;51.092;6.828;2022-10-31T07:55:35;13.20;99.90
20839;DHT22;10580;51.092;6.828;2022-10-31T07:58:03;13.40;99.90
20839;DHT22;10580;51.092;6.828;2022-10-31T08:00:30;13.50;99.90
20839;DHT22;10580;51.092;6.828;2022-10-31T08:03:06;13.70;99.90
20839;DHT22;10580;51.092;6.828;2022-10-31T08:05:33;13.80;99.90
20839;DHT22;10580;51.092;6.828;2022-10-31T08:07:59;13.80;99.90
20839;DHT22;10580;51.092;6.828;2022-10-31T08:10:25;13.90;99.90
20839;DHT22;10580;51.092;6.828;2022-10-31T08:13:05;14.00;99.90
20839;DHT22;10580;51.092;6.828;2022-10-31T08:15:32;14.00;99.90
20839;DHT22;10580;51.092;6.828;2022-10-31T08:17:59;14.10;99.90
20839;DHT22;10580;51.092;6.828;2022-10-31T08:20:25;14.10;99.90
20839;DHT22;10580;51.092;6.828;2022-10-31T08:22:55;14.20;99.90
20839;DHT22;10580;51.092;6.828;2022-10-31T08:25:21;14.30;99.90
20839;DHT22;10580;51.092;6.828;2022-10-31T08:27:55;14.40;99.90
20839;DHT22;10580;51.092;6.828;2022-10-31T08:30:22;14.40;99.90
20839;DHT22;10580;51.092;6.828;2022-10-31T08:32:59;14.50;99.90
20839;DHT22;10580;51.092;6.828;2022-10-31T08:35:25;14.50;99.90
20839;DHT22;10580;51.092;6.828;2022-10-31T08:37:54;14.70;99.90
20839;DHT22;10580;51.092;6.828;2022-10-31T08:40:20;14.80;99.90
20839;DHT22;10580;51.092;6.828;2022-10-31T08:45:23;15.00;99.90
20839;DHT22;10580;51.092;6.828;2022-10-31T08:47:49;15.10;99.90
20839;DHT22;10580;51.092;6.828;2022-10-31T08:50:15;15.20;99.90
20839;DHT22;10580;51.092;6.828;2022-10-31T08:52:40;15.20;99.90
20839;DHT22;10580;51.092;6.828;2022-10-31T08:55:06;15.10;99.90
20839;DHT22;10580;51.092;6.828;2022-10-31T08:57:31;15.00;99.90
20839;DHT22;10580;51.092;6.828;2022-10-31T08:59:57;15.10;99.90
20839;DHT22;10580;51.092;6.828;2022-10-31T09:02:23;15.10;99.90
20839;DHT22;10580;51.092;6.828;2022-10-31T09:04:48;15.20;99.90
20839;DHT22;10580;51.092;6.828;2022-10-31T09:07:14;15.20;99.90
20839;DHT22;10580;51.092;6.828;2022-10-31T09:09:39;15.30;99.90
20839;DHT22;10580;51.092;6.828;2022-10-31T09:12:05;15.40;99.90
20839;DHT22;10580;51.092;6.828;2022-10-31T09:14:30;15.40;99.90
20839;DHT22;10580;51.092;6.828;2022-10-31T09:16:56;15.50;99.90
20839;DHT22;10580;51.092;6.828;2022-10-31T09:19:21;15.50;99.90
20839;DHT22;10580;51.092;6.828;2022-10-31T09:21:47;15.50;99.90
20839;DHT22;10580;51.092;6.828;2022-10-31T09:24:13;15.50;99.90
20839;DHT22;10580;51.092;6.828;2022-10-31T09:26:38;15.60;99.90
20839;DHT22;10580;51.092;6.828;2022-10-31T09:29:04;15.60;99.90
20839;DHT22;10580;51.092;6.828;2022-10-31T09:31:29;15.70;99.90
20839;DHT22;10580;51.092;6.828;2022-10-31T09:33:55;15.80;99.90
20839;DHT22;10580;51.092;6.828;2022-10-31T09:36:21;15.90;99.90
20839;DHT22;10580;51.092;6.828;2022-10-31T09:38:46;16.00;99.90
20839;DHT22;10580;51.092;6.828;2022-10-31T09:47:04;16.50;99.90
20839;DHT22;10580;51.092;6.828;2022-10-31T09:52:18;16.80;99.90
20839;DHT22;10580;51.092;6.828;2022-10-31T09:57:33;16.60;99.90
20839;DHT22;10580;51.092;6.828;2022-10-31T09:59:59;16.60;99.90
20839;DHT22;10580;51.092;6.828;2022-10-31T10:02:53;16.60;99.90
20839;DHT22;10580;51.092;6.828;2022-10-31T10:05:28;16.70;99.90
20839;DHT22;10580;51.092;6.828;2022-10-31T10:08:16;16.70;99.90
20839;DHT22;10580;51.092;6.828;2022-10-31T10:11:15;16.80;99.90
20839;DHT22;10580;51.092;6.828;2022-10-31T10:22:49;16.90;99.90
20839;DHT22;10580;51.092;6.828;2022-10-31T10:30:42;16.90;99.90
20839;DHT22;10580;51.092;6.828;2022-10-31T10:35:52;16.90;99.90
20839;DHT22;10580;51.092;6.828;2022-10-31T10:41:06;16.80;99.90
20839;DHT22;10580;51.092;6.828;2022-10-31T10:43:38;16.70;99.90
20839;DHT22;10580;51.092;6.828;2022-10-31T10:46:18;16.60;99.90
20839;DHT22;10580;51.092;6.828;2022-10-31T10:51:44;16.90;99.90
20839;DHT22;10580;51.092;6.828;2022-10-31T10:59:31;17.00;99.90
20839;DHT22;10580;51.092;6.828;2022-10-31T11:01:58;17.20;99.90
20839;DHT22;10580;51.092;6.828;2022-10-31T11:04:35;17.40;99.90
20839;DHT22;10580;51.092;6.828;2022-10-31T11:07:08;17.50;99.90
20839;DHT22;10580;51.092;6.828;2022-10-31T11:09:35;17.70;99.90
20839;DHT22;10580;51.092;6.828;2022-10-31T11:12:19;17.80;99.90
20839;DHT22;10580;51.092;6.828;2022-10-31T11:14:53;17.90;99.90
20839;DHT22;10580;51.092;6.828;2022-10-31T11:17:36;18.10;99.90
20839;DHT22;10580;51.092;6.828;2022-10-31T11:20:28;18.20;99.90
20839;DHT22;10580;51.092;6.828;2022-10-31T11:23:03;18.30;99.90
20839;DHT22;10580;51.092;6.828;2022-10-31T11:25:29;18.30;97.80
20839;DHT22;10580;51.092;6.828;2022-10-31T11:28:09;18.40;32.30
20839;DHT22;10580;51.092;6.828;2022-10-31T11:30:45;18.60;1.00
20839;DHT22;10580;51.092;6.828;2022-10-31T11:33:38;18.80;1.00
20839;DHT22;10580;51.092;6.828;2022-10-31T11:36:14;19.00;1.00
20839;DHT22;10580;51.092;6.828;2022-10-31T11:38:42;19.30;1.00
20839;DHT22;10580;51.092;6.828;2022-10-31T11:41:15;19.20;1.00
20839;DHT22;10580;51.092;6.828;2022-10-31T11:43:49;19.30;1.00
20839;DHT22;10580;51.092;6.828;2022-10-31T11:46:20;19.40;1.00
20839;DHT22;10580;51.092;6.828;2022-10-31T11:48:55;19.60;1.00
20839;DHT22;10580;51.092;6.828;2022-10-31T11:51:30;19.80;1.00
20839;DHT22;10580;51.092;6.828;2022-10-31T11:54:02;20.00;1.00
20839;DHT22;10580;51.092;6.828;2022-10-31T11:56:38;20.00;1.00
20839;DHT22;10580;51.092;6.828;2022-10-31T11:59:16;19.90;1.00
20839;DHT22;10580;51.092;6.828;2022-10-31T12:01:50;19.90;1.00
20839;DHT22;10580;51.092;6.828;2022-10-31T12:04:16;19.80;1.00
20839;DHT22;10580;51.092;6.828;2022-10-31T12:06:46;19.70;1.00
20839;DHT22;10580;51.092;6.828;2022-10-31T12:14:42;19.20;1.00
20839;DHT22;10580;51.092;6.828;2022-10-31T12:17:34;19.20;1.00
20839;DHT22;10580;51.092;6.828;2022-10-31T12:39:21;19.10;1.00
20839;DHT22;10580;51.092;6.828;2022-10-31T12:47:52;19.20;1.00
20839;DHT22;10580;51.092;6.828;2022-10-31T12:50:28;19.10;1.00
20839;DHT22;10580;51.092;6.828;2022-10-31T12:53:26;19.10;1.00
20839;DHT22;10580;51.092;6.828;2022-10-31T13:02:06;18.90;1.00
20839;DHT22;10580;51.092;6.828;2022-10-31T13:04:56;18.90;1.00
20839;DHT22;10580;51.092;6.828;2022-10-31T13:07:44;18.90;1.00
20839;DHT22;10580;51.092;6.828;2022-10-31T13:10:32;19.00;1.00
20839;DHT22;10580;51.092;6.828;2022-10-31T13:13:09;19.00;1.00
20839;DHT22;10580;51.092;6.828;2022-10-31T13:15:50;19.00;1.00
20839;DHT22;10580;51.092;6.828;2022-10-31T13:18:31;19.00;1.00
20839;DHT22;10580;51.092;6.828;2022-10-31T13:21:01;19.10;1.00
20839;DHT22;10580;51.092;6.828;2022-10-31T13:23:32;19.20;1.00
20839;DHT22;10580;51.092;6.828;2022-10-31T13:26:01;19.20;1.00
20839;DHT22;10580;51.092;6.828;2022-10-31T13:28:31;19.30;1.00
20839;DHT22;10580;51.092;6.828;2022-10-31T13:31:00;19.20;1.00
20839;DHT22;10580;51.092;6.828;2022-10-31T13:33:42;19.20;1.00
20839;DHT22;10580;51.092;6.828;2022-10-31T13:44:40;19.20;1.00
20839;DHT22;10580;51.092;6.828;2022-10-31T13:47:28;19.20;1.00
20839;DHT22;10580;51.092;6.828;2022-10-31T13:50:24;19.20;1.00
20839;DHT22;10580;51.092;6.828;2022-10-31T13:52:50;19.20;1.00
20839;DHT22;10580;51.092;6.828;2022-10-31T13:55:36;19.10;1.00
20839;DHT22;10580;51.092;6.828;2022-10-31T13:58:29;19.10;1.00
20839;DHT22;10580;51.092;6.828;2022-10-31T14:03:40;19.00;1.00
20839;DHT22;10580;51.092;6.828;2022-10-31T14:06:09;18.90;1.00
20839;DHT22;10580;51.092;6.828;2022-10-31T14:08:41;18.90;1.00
20839;DHT22;10580;51.092;6.828;2022-10-31T14:11:09;18.90;1.00
20839;DHT22;10580;51.092;6.828;2022-10-31T14:13:44;18.90;1.00
20839;DHT22;10580;51.092;6.828;2022-10-31T14:16:28;18.90;1.00
20839;DHT22;10580;51.092;6.828;2022-10-31T14:19:07;18.90;1.00
20839;DHT22;10580;51.092;6.828;2022-10-31T14:21:44;18.90;1.00
20839;DHT22;10580;51.092;6.828;2022-10-31T14:27:00;18.90;1.00
20839;DHT22;10580;51.092;6.828;2022-10-31T14:29:31;18.90;1.00
20839;DHT22;10580;51.092;6.828;2022-10-31T14:32:06;18.90;1.00
20839;DHT22;10580;51.092;6.828;2022-10-31T14:34:53;18.90;1.00
20839;DHT22;10580;51.092;6.828;2022-10-31T14:37:42;18.80;1.00
20839;DHT22;10580;51.092;6.828;2022-10-31T14:40:21;18.80;1.00
20839;DHT22;10580;51.092;6.828;2022-10-31T14:45:35;18.80;1.00
20839;DHT22;10580;51.092;6.828;2022-10-31T18:05:53;16.90;1.00
20839;DHT22;10580;51.092;6.828;2022-10-31T18:08:31;16.90;1.00
20839;DHT22;10580;51.092;6.828;2022-10-31T18:10:57;16.90;1.00
20839;DHT22;10580;51.092;6.828;2022-10-31T18:13:26;16.80;1.00
20839;DHT22;10580;51.092;6.828;2022-10-31T18:15:52;16.80;1.00
20839;DHT22;10580;51.092;6.828;2022-10-31T18:18:18;16.80;1.00
20839;DHT22;10580;51.092;6.828;2022-10-31T18:20:44;16.80;1.00
20839;DHT22;10580;51.092;6.828;2022-10-31T18:23:10;16.80;1.00
20839;DHT22;10580;51.092;6.828;2022-10-31T18:25:36;16.90;1.00
20839;DHT22;10580;51.092;6.828;2022-10-31T18:28:08;16.90;1.00
20839;DHT22;10580;51.092;6.828;2022-10-31T18:30:40;17.00;1.00
20839;DHT22;10580;51.092;6.828;2022-10-31T18:33:07;17.00;1.00
20839;DHT22;10580;51.092;6.828;2022-10-31T18:35:37;16.90;1.00
20839;DHT22;10580;51.092;6.828;2022-10-31T18:38:04;16.80;1.00
20839;DHT22;10580;51.092;6.828;2022-10-31T18:40:32;16.80;1.00
20839;DHT22;10580;51.092;6.828;2022-10-31T18:42:58;16.80;1.00
20839;DHT22;10580;51.092;6.828;2022-10-31T18:45:24;16.70;1.00
20839;DHT22;10580;51.092;6.828;2022-10-31T18:47:50;16.70;1.00
20839;DHT22;10580;51.092;6.828;2022-10-31T18:50:16;16.60;1.00
20839;DHT22;10580;51.092;6.828;2022-10-31T18:52:45;16.60;1.00
20839;DHT22;10580;51.092;6.828;2022-10-31T18:55:10;16.50;1.00
20839;DHT22;10580;51.092;6.828;2022-10-31T18:57:36;16.50;1.00
20839;DHT22;10580;51.092;6.828;2022-10-31T19:00:03;16.50;1.00
20839;DHT22;10580;51.092;6.828;2022-10-31T19:02:29;16.50;1.00
20839;DHT22;10580;51.092;6.828;2022-10-31T19:04:55;16.50;1.00
20839;DHT22;10580;51.092;6.828;2022-10-31T19:07:21;16.60;1.00
20839;DHT22;10580;51.092;6.828;2022-10-31T19:09:46;16.50;1.00
20839;DHT22;10580;51.092;6.828;2022-10-31T19:12:12;16.50;1.00
20839;DHT22;10580;51.092;6.828;2022-10-31T19:14:37;16.60;1.00
20839;DHT22;10580;51.092;6.828;2022-10-31T19:17:03;16.50;1.00
20839;DHT22;10580;51.092;6.828;2022-10-31T19:19:29;16.50;1.00
20839;DHT22;10580;51.092;6.828;2022-10-31T19:21:54;16.60;1.00
20839;DHT22;10580;51.092;6.828;2022-10-31T19:24:20;16.60;1.00
20839;DHT22;10580;51.092;6.828;2022-10-31T19:26:46;16.50;1.00
20839;DHT22;10580;51.092;6.828;2022-10-31T19:29:12;16.50;1.00
20839;DHT22;10580;51.092;6.828;2022-10-31T19:31:38;16.50;1.00
20839;DHT22;10580;51.092;6.828;2022-10-31T19:34:04;16.50;1.00
20839;DHT22;10580;51.092;6.828;2022-10-31T19:36:29;16.50;1.00
20839;DHT22;10580;51.092;6.828;2022-10-31T19:38:55;16.50;1.00
20839;DHT22;10580;51.092;6.828;2022-10-31T19:41:26;16.50;1.00
20839;DHT22;10580;51.092;6.828;2022-10-31T19:43:52;16.40;1.00
20839;DHT22;10580;51.092;6.828;2022-10-31T19:46:20;16.40;1.00
20839;DHT22;10580;51.092;6.828;2022-10-31T19:48:45;16.50;1.00
20839;DHT22;10580;51.092;6.828;2022-10-31T19:51:16;16.40;1.00
20839;DHT22;10580;51.092;6.828;2022-10-31T19:53:42;16.40;1.00
20839;DHT22;10580;51.092;6.828;2022-10-31T19:56:16;16.30;1.00
20839;DHT22;10580;51.092;6.828;2022-10-31T19:58:43;16.30;1.00
20839;DHT22;10580;51.092;6.828;2022-10-31T20:01:11;16.40;1.00
20839;DHT22;10580;51.092;6.828;2022-10-31T20:03:37;16.30;1.00
20839;DHT22;10580;51.092;6.828;2022-10-31T20:06:04;16.30;3.20
20839;DHT22;10580;51.092;6.828;2022-10-31T20:08:30;16.20;6.70
20839;DHT22;10580;51.092;6.828;2022-10-31T20:11:01;16.20;12.30
20839;DHT22;10580;51.092;6.828;2022-10-31T20:13:28;16.20;10.50
20839;DHT22;10580;51.092;6.828;2022-10-31T20:16:02;16.30;9.70
20839;DHT22;10580;51.092;6.828;2022-10-31T20:18:29;16.20;14.80
20839;DHT22;10580;51.092;6.828;2022-10-31T20:21:09;16.20;18.10
20839;DHT22;10580;51.092;6.828;2022-10-31T20:23:35;16.20;20.20
20839;DHT22;10580;51.092;6.828;2022-10-31T20:26:01;16.20;22.20
20839;DHT22;10580;51.092;6.828;2022-10-31T20:28:28;16.10;26.70
20839;DHT22;10580;51.092;6.828;2022-10-31T20:30:54;16.10;23.10
20839;DHT22;10580;51.092;6.828;2022-10-31T20:33:20;16.10;23.10
20839;DHT22;10580;51.092;6.828;2022-10-31T20:35:46;16.10;28.60
20839;DHT22;10580;51.092;6.828;2022-10-31T20:38:12;16.10;25.00
20839;DHT22;10580;51.092;6.828;2022-10-31T20:40:38;16.10;21.60
20839;DHT22;10580;51.092;6.828;2022-10-31T20:43:03;16.10;20.60
20839;DHT22;10580;51.092;6.828;2022-10-31T20:45:30;16.10;19.80
20839;DHT22;10580;51.092;6.828;2022-10-31T20:47:55;16.20;20.60
20839;DHT22;10580;51.092;6.828;2022-10-31T20:50:21;16.10;16.80
20839;DHT22;10580;51.092;6.828;2022-10-31T20:52:47;16.10;20.60
20839;DHT22;10580;51.092;6.828;2022-10-31T20:55:13;16.10;24.20
20839;DHT22;10580;51.092;6.828;2022-10-31T20:57:39;16.00;34.60
20839;DHT22;10580;51.092;6.828;2022-10-31T21:00:06;16.00;26.30
20839;DHT22;10580;51.092;6.828;2022-10-31T21:02:32;16.00;36.00
20839;DHT22;10580;51.092;6.828;2022-10-31T21:04:57;15.90;42.00
20839;DHT22;10580;51.092;6.828;2022-10-31T21:07:23;15.90;41.90
20839;DHT22;10580;51.092;6.828;2022-10-31T21:09:48;15.90;42.40
20839;DHT22;10580;51.092;6.828;2022-10-31T21:12:14;15.90;45.80
20839;DHT22;10580;51.092;6.828;2022-10-31T21:14:40;15.90;42.10
20839;DHT22;10580;51.092;6.828;2022-10-31T21:17:05;15.90;39.00
20839;DHT22;10580;51.092;6.828;2022-10-31T21:19:31;15.90;38.70
20839;DHT22;10580;51.092;6.828;2022-10-31T21:21:57;15.80;35.70
20839;DHT22;10580;51.092;6.828;2022-10-31T21:24:24;15.80;42.80
20839;DHT22;10580;51.092;6.828;2022-10-31T21:26:52;15.80;32.60
20839;DHT22;10580;51.092;6.828;2022-10-31T21:29:18;15.80;35.60
20839;DHT22;10580;51.092;6.828;2022-10-31T21:31:45;15.80;40.60
20839;DHT22;10580;51.092;6.828;2022-10-31T21:34:11;15.70;34.30
20839;DHT22;10580;51.092;6.828;2022-10-31T21:36:37;15.70;44.60
20839;DHT22;10580;51.092;6.828;2022-10-31T21:39:04;15.70;35.10
20839;DHT22;10580;51.092;6.828;2022-10-31T21:41:30;15.70;34.10
20839;DHT22;10580;51.092;6.828;2022-10-31T21:43:56;15.70;35.60
20839;DHT22;10580;51.092;6.828;2022-10-31T21:46:27;15.70;33.00
20839;DHT22;10580;51.092;6.828;2022-10-31T21:48:53;15.70;32.90
20839;DHT22;10580;51.092;6.828;2022-10-31T21:51:21;15.70;33.20
20839;DHT22;10580;51.092;6.828;2022-10-31T21:53:47;15.80;31.50
20839;DHT22;10580;51.092;6.828;2022-10-31T21:56:42;15.80;27.00
20839;DHT22;10580;51.092;6.828;2022-10-31T21:59:08;15.70;28.00
20839;DHT22;10580;51.092;6.828;2022-10-31T22:01:34;15.70;23.90
20839;DHT22;10580;51.092;6.828;2022-10-31T22:04:00;15.80;25.90
20839;DHT22;10580;51.092;6.828;2022-10-31T22:06:27;15.80;25.20
20839;DHT22;10580;51.092;6.828;2022-10-31T22:09:01;15.70;25.80
20839;DHT22;10580;51.092;6.828;2022-10-31T22:11:27;15.70;27.10
20839;DHT22;10580;51.092;6.828;2022-10-31T22:13:53;15.70;20.60
20839;DHT22;10580;51.092;6.828;2022-10-31T22:16:20;15.70;19.40
20839;DHT22;10580;51.092;6.828;2022-10-31T22:18:46;15.70;26.20
20839;DHT22;10580;51.092;6.828;2022-10-31T22:21:18;15.70;26.40
20839;DHT22;10580;51.092;6.828;2022-10-31T22:23:55;15.70;30.80
20839;DHT22;10580;51.092;6.828;2022-10-31T22:26:21;15.70;29.40
20839;DHT22;10580;51.092;6.828;2022-10-31T22:28:49;15.70;33.70
20839;DHT22;10580;51.092;6.828;2022-10-31T22:31:18;15.70;33.40
20839;DHT22;10580;51.092;6.828;2022-10-31T22:33:45;15.70;37.50
20839;DHT22;10580;51.092;6.828;2022-10-31T22:36:16;15.70;38.10
20839;DHT22;10580;51.092;6.828;2022-10-31T22:38:43;15.70;40.60
20839;DHT22;10580;51.092;6.828;2022-10-31T22:41:14;15.80;32.50
20839;DHT22;10580;51.092;6.828;2022-10-31T22:43:40;15.80;34.20
20839;DHT22;10580;51.092;6.828;2022-10-31T22:46:10;15.80;24.10
20839;DHT22;10580;51.092;6.828;2022-10-31T22:48:38;15.90;20.80
20839;DHT22;10580;51.092;6.828;2022-10-31T22:51:15;16.00;11.00
20839;DHT22;10580;51.092;6.828;2022-10-31T22:53:41;16.00;11.80
20839;DHT22;10580;51.092;6.828;2022-10-31T22:56:11;16.00;8.00
20839;DHT22;10580;51.092;6.828;2022-10-31T22:58:36;16.00;9.40
20839;DHT22;10580;51.092;6.828;2022-10-31T23:01:15;16.10;10.40
20839;DHT22;10580;51.092;6.828;2022-10-31T23:03:41;16.10;10.80
20839;DHT22;10580;51.092;6.828;2022-10-31T23:06:11;16.20;5.20
20839;DHT22;10580;51.092;6.828;2022-10-31T23:08:37;16.20;2.40
20839;DHT22;10580;51.092;6.828;2022-10-31T23:11:21;16.20;7.40
20839;DHT22;10580;51.092;6.828;2022-10-31T23:13:56;16.30;3.40
20839;DHT22;10580;51.092;6.828;2022-10-31T23:16:47;16.20;3.70
20839;DHT22;10580;51.092;6.828;2022-10-31T23:19:18;16.20;1.00
20839;DHT22;10580;51.092;6.828;2022-10-31T23:21:56;16.20;1.00
20839;DHT22;10580;51.092;6.828;2022-10-31T23:24:34;16.20;2.10
20839;DHT22;10580;51.092;6.828;2022-10-31T23:27:14;16.20;11.50
20839;DHT22;10580;51.092;6.828;2022-10-31T23:29:51;16.20;18.70
20839;DHT22;10580;51.092;6.828;2022-10-31T23:32:20;16.20;20.20
20839;DHT22;10580;51.092;6.828;2022-10-31T23:35:12;16.20;40.80